sensor_id;sensor_type;location;lat;lon;timestamp;P1;P2;P0
70570;PMS5003;58135;50.948;-1.458;2022-10-16T00:01:08;13;10;
70570;PMS5003;58135;50.948;-1.458;2022-10-16T00:03:34;5;3;
70570;PMS5003;58135;50.948;-1.458;2022-10-16T00:05:59;3;3;
70570;PMS5003;58135;50.948;-1.458;2022-10-16T00:08:25;4;3;
70570;PMS5003;58135;50.948;-1.458;2022-10-16T00:10:50;2;2;
70570;PMS5003;58135;50.948;-1.458;2022-10-16T00:13:16;5;3;
70570;PMS5003;58135;50.948;-1.458;2022-10-16T00:15:41;7;3;
70570;PMS5003;58135;50.948;-1.458;2022-10-16T00:18:07;4;2;
70570;PMS5003;58135;50.948;-1.458;2022-10-16T00:20:33;4;3;
70570;PMS5003;58135;50.948;-1.458;2022-10-16T00:22:58;2;2;
70570;PMS5003;58135;50.948;-1.458;2022-10-16T00:25:24;8;4;
70570;PMS5003;58135;50.948;-1.458;2022-10-16T00:27:49;4;3;
70570;PMS5003;58135;50.948;-1.458;2022-10-16T00:30:15;3;3;
70570;PMS5003;58135;50.948;-1.458;2022-10-16T00:32:40;3;3;
70570;PMS5003;58135;50.948;-1.458;2022-10-16T00:35:06;4;2;
70570;PMS5003;58135;50.948;-1.458;2022-10-16T00:37:31;4;2;
70570;PMS5003;58135;50.948;-1.458;2022-10-16T00:39:57;6;4;
70570;PMS5003;58135;50.948;-1.458;2022-10-16T00:42:22;6;5;
70570;PMS5003;58135;50.948;-1.458;2022-10-16T00:44:48;5;3;
70570;PMS5003;58135;50.948;-1.458;2022-10-16T00:47:15;6;1;
70570;PMS5003;58135;50.948;-1.458;2022-10-16T00:49:38;3;3;
70570;PMS5003;58135;50.948;-1.458;2022-10-16T00:52:04;3;2;
70570;PMS5003;58135;50.948;-1.458;2022-10-16T00:54:30;1;1;
70570;PMS5003;58135;50.948;-1.458;2022-10-16T00:56:56;4;1;
70570;PMS5003;58135;50.948;-1.458;2022-10-16T00:59:22;1;0;
70570;PMS5003;58135;50.948;-1.458;2022-10-16T01:01:46;3;2;
70570;PMS5003;58135;50.948;-1.458;2022-10-16T01:04:17;5;3;
70570;PMS5003;58135;50.948;-1.458;2022-10-16T01:06:39;2;0;
70570;PMS5003;58135;50.948;-1.458;2022-10-16T01:09:09;3;2;
70570;PMS5003;58135;50.948;-1.458;2022-10-16T01:11:31;2;1;
70570;PMS5003;58135;50.948;-1.458;2022-10-16T01:13:55;3;2;
70570;PMS5003;58135;50.948;-1.458;2022-10-16T01:16:21;1;1;
70570;PMS5003;58135;50.948;-1.458;2022-10-16T01:18:46;2;1;
70570;PMS5003;58135;50.948;-1.458;2022-10-16T01:21:12;4;2;
70570;PMS5003;58135;50.948;-1.458;2022-10-16T01:23:38;2;2;
70570;PMS5003;58135;50.948;-1.458;2022-10-16T01:26:07;5;3;
70570;PMS5003;58135;50.948;-1.458;2022-10-16T01:28:28;3;2;
70570;PMS5003;58135;50.948;-1.458;2022-10-16T01:30:53;3;2;
70570;PMS5003;58135;50.948;-1.458;2022-10-16T01:33:19;1;0;
70570;PMS5003;58135;50.948;-1.458;2022-10-16T01:35:45;1;1;
70570;PMS5003;58135;50.948;-1.458;2022-10-16T01:38:10;0;0;
70570;PMS5003;58135;50.948;-1.458;2022-10-16T01:40:36;2;1;
70570;PMS5003;58135;50.948;-1.458;2022-10-16T01:43:01;0;0;
70570;PMS5003;58135;50.948;-1.458;2022-10-16T01:45:26;2;0;
70570;PMS5003;58135;50.948;-1.458;2022-10-16T01:47:51;2;1;
70570;PMS5003;58135;50.948;-1.458;2022-10-16T01:50:18;1;1;
70570;PMS5003;58135;50.948;-1.458;2022-10-16T01:52:43;2;1;
70570;PMS5003;58135;50.948;-1.458;2022-10-16T01:55:09;5;2;
70570;PMS5003;58135;50.948;-1.458;2022-10-16T01:57:34;4;2;
70570;PMS5003;58135;50.948;-1.458;2022-10-16T02:00:00;5;2;
70570;PMS5003;58135;50.948;-1.458;2022-10-16T02:02:25;3;2;
70570;PMS5003;58135;50.948;-1.458;2022-10-16T02:04:51;3;3;
70570;PMS5003;58135;50.948;-1.458;2022-10-16T02:07:16;1;0;
70570;PMS5003;58135;50.948;-1.458;2022-10-16T02:09:41;2;1;
70570;PMS5003;58135;50.948;-1.458;2022-10-16T02:12:08;2;1;
70570;PMS5003;58135;50.948;-1.458;2022-10-16T02:14:33;1;0;
70570;PMS5003;58135;50.948;-1.458;2022-10-16T02:16:58;1;1;
70570;PMS5003;58135;50.948;-1.458;2022-10-16T02:19:24;1;1;
70570;PMS5003;58135;50.948;-1.458;2022-10-16T02:21:51;0;0;
70570;PMS5003;58135;50.948;-1.458;2022-10-16T02:24:17;2;1;
70570;PMS5003;58135;50.948;-1.458;2022-10-16T02:26:41;2;1;
70570;PMS5003;58135;50.948;-1.458;2022-10-16T02:29:07;1;1;
70570;PMS5003;58135;50.948;-1.458;2022-10-16T02:31:32;1;1;
70570;PMS5003;58135;50.948;-1.458;2022-10-16T02:33:58;2;1;
70570;PMS5003;58135;50.948;-1.458;2022-10-16T02:36:23;4;1;
70570;PMS5003;58135;50.948;-1.458;2022-10-16T02:38:48;3;1;
70570;PMS5003;58135;50.948;-1.458;2022-10-16T02:41:14;1;1;
70570;PMS5003;58135;50.948;-1.458;2022-10-16T02:43:40;1;0;
70570;PMS5003;58135;50.948;-1.458;2022-10-16T02:46:05;1;1;
70570;PMS5003;58135;50.948;-1.458;2022-10-16T02:48:31;1;1;
70570;PMS5003;58135;50.948;-1.458;2022-10-16T02:50:56;1;0;
70570;PMS5003;58135;50.948;-1.458;2022-10-16T02:53:22;2;1;
70570;PMS5003;58135;50.948;-1.458;2022-10-16T02:55:48;4;2;
70570;PMS5003;58135;50.948;-1.458;2022-10-16T02:58:13;1;0;
70570;PMS5003;58135;50.948;-1.458;2022-10-16T03:00:38;1;1;
70570;PMS5003;58135;50.948;-1.458;2022-10-16T03:03:04;3;1;
70570;PMS5003;58135;50.948;-1.458;2022-10-16T03:05:29;1;1;
70570;PMS5003;58135;50.948;-1.458;2022-10-16T03:07:55;2;1;
70570;PMS5003;58135;50.948;-1.458;2022-10-16T03:10:21;2;1;
70570;PMS5003;58135;50.948;-1.458;2022-10-16T03:12:46;5;2;
70570;PMS5003;58135;50.948;-1.458;2022-10-16T03:15:11;2;0;
70570;PMS5003;58135;50.948;-1.458;2022-10-16T03:17:37;1;1;
70570;PMS5003;58135;50.948;-1.458;2022-10-16T03:20:03;4;2;
70570;PMS5003;58135;50.948;-1.458;2022-10-16T03:22:28;1;1;
70570;PMS5003;58135;50.948;-1.458;2022-10-16T03:24:54;4;2;
70570;PMS5003;58135;50.948;-1.458;2022-10-16T03:27:20;4;4;
70570;PMS5003;58135;50.948;-1.458;2022-10-16T03:29:45;2;1;
70570;PMS5003;58135;50.948;-1.458;2022-10-16T03:32:10;2;2;
70570;PMS5003;58135;50.948;-1.458;2022-10-16T03:34:36;2;2;
70570;PMS5003;58135;50.948;-1.458;2022-10-16T03:37:01;3;2;
70570;PMS5003;58135;50.948;-1.458;2022-10-16T03:39:26;2;2;
70570;PMS5003;58135;50.948;-1.458;2022-10-16T03:41:52;1;1;
70570;PMS5003;58135;50.948;-1.458;2022-10-16T03:44:17;2;1;
70570;PMS5003;58135;50.948;-1.458;2022-10-16T03:46:43;3;1;
70570;PMS5003;58135;50.948;-1.458;2022-10-16T03:49:08;2;2;
70570;PMS5003;58135;50.948;-1.458;2022-10-16T03:51:34;6;3;
70570;PMS5003;58135;50.948;-1.458;2022-10-16T03:53:59;0;0;
70570;PMS5003;58135;50.948;-1.458;2022-10-16T03:56:25;1;0;
70570;PMS5003;58135;50.948;-1.458;2022-10-16T03:58:50;2;1;
70570;PMS5003;58135;50.948;-1.458;2022-10-16T04:01:16;4;3;
70570;PMS5003;58135;50.948;-1.458;2022-10-16T04:03:41;5;4;
70570;PMS5003;58135;50.948;-1.458;2022-10-16T04:06:07;4;3;
70570;PMS5003;58135;50.948;-1.458;2022-10-16T04:08:32;1;1;
70570;PMS5003;58135;50.948;-1.458;2022-10-16T04:10:58;2;1;
70570;PMS5003;58135;50.948;-1.458;2022-10-16T04:13:23;3;1;
70570;PMS5003;58135;50.948;-1.458;2022-10-16T04:15:49;5;3;
70570;PMS5003;58135;50.948;-1.458;2022-10-16T04:18:15;6;2;
70570;PMS5003;58135;50.948;-1.458;2022-10-16T04:20:40;2;2;
70570;PMS5003;58135;50.948;-1.458;2022-10-16T04:23:06;1;1;
70570;PMS5003;58135;50.948;-1.458;2022-10-16T04:25:31;2;2;
70570;PMS5003;58135;50.948;-1.458;2022-10-16T04:27:57;2;1;
70570;PMS5003;58135;50.948;-1.458;2022-10-16T04:30:23;4;2;
70570;PMS5003;58135;50.948;-1.458;2022-10-16T04:32:48;3;1;
70570;PMS5003;58135;50.948;-1.458;2022-10-16T04:35:13;6;2;
70570;PMS5003;58135;50.948;-1.458;2022-10-16T04:37:39;4;1;
70570;PMS5003;58135;50.948;-1.458;2022-10-16T04:40:05;4;3;
70570;PMS5003;58135;50.948;-1.458;2022-10-16T04:42:30;3;3;
70570;PMS5003;58135;50.948;-1.458;2022-10-16T04:44:56;3;2;
70570;PMS5003;58135;50.948;-1.458;2022-10-16T04:47:21;3;1;
70570;PMS5003;58135;50.948;-1.458;2022-10-16T04:49:47;6;5;
70570;PMS5003;58135;50.948;-1.458;2022-10-16T04:52:13;1;1;
70570;PMS5003;58135;50.948;-1.458;2022-10-16T04:54:38;0;0;
70570;PMS5003;58135;50.948;-1.458;2022-10-16T04:57:04;4;3;
70570;PMS5003;58135;50.948;-1.458;2022-10-16T04:59:30;3;3;
70570;PMS5003;58135;50.948;-1.458;2022-10-16T05:01:55;1;1;
70570;PMS5003;58135;50.948;-1.458;2022-10-16T05:04:21;6;4;
70570;PMS5003;58135;50.948;-1.458;2022-10-16T05:06:47;3;3;
70570;PMS5003;58135;50.948;-1.458;2022-10-16T05:09:12;5;5;
70570;PMS5003;58135;50.948;-1.458;2022-10-16T05:11:37;3;2;
70570;PMS5003;58135;50.948;-1.458;2022-10-16T05:14:03;1;0;
70570;PMS5003;58135;50.948;-1.458;2022-10-16T05:16:28;2;2;
70570;PMS5003;58135;50.948;-1.458;2022-10-16T05:18:54;2;1;
70570;PMS5003;58135;50.948;-1.458;2022-10-16T05:21:20;4;1;
70570;PMS5003;58135;50.948;-1.458;2022-10-16T05:23:45;4;3;
70570;PMS5003;58135;50.948;-1.458;2022-10-16T05:26:11;2;1;
70570;PMS5003;58135;50.948;-1.458;2022-10-16T05:28:37;1;1;
70570;PMS5003;58135;50.948;-1.458;2022-10-16T05:31:04;0;0;
70570;PMS5003;58135;50.948;-1.458;2022-10-16T05:33:28;2;1;
70570;PMS5003;58135;50.948;-1.458;2022-10-16T05:35:53;5;0;
70570;PMS5003;58135;50.948;-1.458;2022-10-16T05:38:19;4;2;
70570;PMS5003;58135;50.948;-1.458;2022-10-16T05:43:10;3;1;
70570;PMS5003;58135;50.948;-1.458;2022-10-16T05:45:36;3;2;
70570;PMS5003;58135;50.948;-1.458;2022-10-16T05:48:01;2;2;
70570;PMS5003;58135;50.948;-1.458;2022-10-16T05:50:27;3;2;
70570;PMS5003;58135;50.948;-1.458;2022-10-16T05:52:53;2;2;
70570;PMS5003;58135;50.948;-1.458;2022-10-16T05:55:18;6;4;
70570;PMS5003;58135;50.948;-1.458;2022-10-16T05:57:44;3;3;
70570;PMS5003;58135;50.948;-1.458;2022-10-16T06:00:10;3;1;
70570;PMS5003;58135;50.948;-1.458;2022-10-16T06:02:35;2;2;
70570;PMS5003;58135;50.948;-1.458;2022-10-16T06:05:01;5;2;
70570;PMS5003;58135;50.948;-1.458;2022-10-16T06:07:26;1;1;
70570;PMS5003;58135;50.948;-1.458;2022-10-16T06:09:52;1;1;
70570;PMS5003;58135;50.948;-1.458;2022-10-16T06:12:18;3;3;
70570;PMS5003;58135;50.948;-1.458;2022-10-16T06:14:44;1;1;
70570;PMS5003;58135;50.948;-1.458;2022-10-16T06:17:09;1;1;
70570;PMS5003;58135;50.948;-1.458;2022-10-16T06:19:34;3;2;
70570;PMS5003;58135;50.948;-1.458;2022-10-16T06:22:00;2;2;
70570;PMS5003;58135;50.948;-1.458;2022-10-16T06:24:26;3;2;
70570;PMS5003;58135;50.948;-1.458;2022-10-16T06:26:51;3;3;
70570;PMS5003;58135;50.948;-1.458;2022-10-16T06:29:17;3;2;
70570;PMS5003;58135;50.948;-1.458;2022-10-16T06:31:42;5;2;
70570;PMS5003;58135;50.948;-1.458;2022-10-16T06:34:08;8;6;
70570;PMS5003;58135;50.948;-1.458;2022-10-16T06:36:33;4;3;
70570;PMS5003;58135;50.948;-1.458;2022-10-16T06:38:59;6;4;
70570;PMS5003;58135;50.948;-1.458;2022-10-16T06:41:25;3;2;
70570;PMS5003;58135;50.948;-1.458;2022-10-16T06:43:50;1;1;
70570;PMS5003;58135;50.948;-1.458;2022-10-16T06:46:16;3;2;
70570;PMS5003;58135;50.948;-1.458;2022-10-16T06:48:41;3;1;
70570;PMS5003;58135;50.948;-1.458;2022-10-16T06:51:08;2;2;
70570;PMS5003;58135;50.948;-1.458;2022-10-16T06:53:32;1;1;
70570;PMS5003;58135;50.948;-1.458;2022-10-16T06:55:58;3;2;
70570;PMS5003;58135;50.948;-1.458;2022-10-16T06:58:23;3;2;
70570;PMS5003;58135;50.948;-1.458;2022-10-16T07:00:49;3;3;
70570;PMS5003;58135;50.948;-1.458;2022-10-16T07:03:14;3;2;
70570;PMS5003;58135;50.948;-1.458;2022-10-16T07:05:41;3;3;
70570;PMS5003;58135;50.948;-1.458;2022-10-16T07:08:06;4;3;
70570;PMS5003;58135;50.948;-1.458;2022-10-16T07:10:31;2;2;
70570;PMS5003;58135;50.948;-1.458;2022-10-16T07:12:56;2;2;
70570;PMS5003;58135;50.948;-1.458;2022-10-16T07:15:22;3;3;
70570;PMS5003;58135;50.948;-1.458;2022-10-16T07:17:48;5;3;
70570;PMS5003;58135;50.948;-1.458;2022-10-16T07:20:13;4;3;
70570;PMS5003;58135;50.948;-1.458;2022-10-16T07:22:39;5;4;
70570;PMS5003;58135;50.948;-1.458;2022-10-16T07:25:05;5;4;
70570;PMS5003;58135;50.948;-1.458;2022-10-16T07:27:30;6;5;
70570;PMS5003;58135;50.948;-1.458;2022-10-16T07:29:56;7;6;
70570;PMS5003;58135;50.948;-1.458;2022-10-16T07:32:22;2;2;
70570;PMS5003;58135;50.948;-1.458;2022-10-16T07:34:47;5;3;
70570;PMS5003;58135;50.948;-1.458;2022-10-16T07:37:13;4;3;
70570;PMS5003;58135;50.948;-1.458;2022-10-16T07:39:38;4;4;
70570;PMS5003;58135;50.948;-1.458;2022-10-16T07:42:04;3;3;
70570;PMS5003;58135;50.948;-1.458;2022-10-16T07:44:29;6;4;
70570;PMS5003;58135;50.948;-1.458;2022-10-16T07:46:55;4;3;
70570;PMS5003;58135;50.948;-1.458;2022-10-16T07:49:21;4;4;
70570;PMS5003;58135;50.948;-1.458;2022-10-16T07:51:46;5;4;
70570;PMS5003;58135;50.948;-1.458;2022-10-16T07:54:12;5;3;
70570;PMS5003;58135;50.948;-1.458;2022-10-16T07:56:37;4;3;
70570;PMS5003;58135;50.948;-1.458;2022-10-16T07:59:03;4;4;
70570;PMS5003;58135;50.948;-1.458;2022-10-16T08:01:29;5;4;
70570;PMS5003;58135;50.948;-1.458;2022-10-16T08:03:54;2;2;
70570;PMS5003;58135;50.948;-1.458;2022-10-16T08:06:20;5;4;
70570;PMS5003;58135;50.948;-1.458;2022-10-16T08:08:45;6;4;
70570;PMS5003;58135;50.948;-1.458;2022-10-16T08:11:11;2;2;
70570;PMS5003;58135;50.948;-1.458;2022-10-16T08:13:36;6;4;
70570;PMS5003;58135;50.948;-1.458;2022-10-16T08:16:02;3;2;
70570;PMS5003;58135;50.948;-1.458;2022-10-16T08:18:27;5;3;
70570;PMS5003;58135;50.948;-1.458;2022-10-16T08:20:56;8;6;
70570;PMS5003;58135;50.948;-1.458;2022-10-16T08:23:18;6;4;
70570;PMS5003;58135;50.948;-1.458;2022-10-16T08:25:44;4;4;
70570;PMS5003;58135;50.948;-1.458;2022-10-16T08:28:10;8;5;
70570;PMS5003;58135;50.948;-1.458;2022-10-16T08:30:35;6;5;
70570;PMS5003;58135;50.948;-1.458;2022-10-16T08:33:01;4;3;
70570;PMS5003;58135;50.948;-1.458;2022-10-16T08:35:26;2;2;
70570;PMS5003;58135;50.948;-1.458;2022-10-16T08:37:52;5;4;
70570;PMS5003;58135;50.948;-1.458;2022-10-16T08:40:18;6;6;
70570;PMS5003;58135;50.948;-1.458;2022-10-16T08:42:47;4;4;
70570;PMS5003;58135;50.948;-1.458;2022-10-16T08:45:16;7;6;
70570;PMS5003;58135;50.948;-1.458;2022-10-16T08:47:35;6;5;
70570;PMS5003;58135;50.948;-1.458;2022-10-16T08:50:01;7;6;
70570;PMS5003;58135;50.948;-1.458;2022-10-16T08:52:28;6;6;
70570;PMS5003;58135;50.948;-1.458;2022-10-16T08:54:51;7;5;
70570;PMS5003;58135;50.948;-1.458;2022-10-16T08:57:17;6;4;
70570;PMS5003;58135;50.948;-1.458;2022-10-16T08:59:47;6;5;
70570;PMS5003;58135;50.948;-1.458;2022-10-16T09:04:43;7;5;
70570;PMS5003;58135;50.948;-1.458;2022-10-16T09:06:59;8;8;
70570;PMS5003;58135;50.948;-1.458;2022-10-16T09:09:28;11;9;
70570;PMS5003;58135;50.948;-1.458;2022-10-16T09:11:51;5;5;
70570;PMS5003;58135;50.948;-1.458;2022-10-16T09:14:24;8;6;
70570;PMS5003;58135;50.948;-1.458;2022-10-16T09:16:41;5;4;
70570;PMS5003;58135;50.948;-1.458;2022-10-16T09:19:09;5;4;
70570;PMS5003;58135;50.948;-1.458;2022-10-16T09:21:32;6;5;
70570;PMS5003;58135;50.948;-1.458;2022-10-16T09:23:58;6;3;
70570;PMS5003;58135;50.948;-1.458;2022-10-16T09:26:23;6;5;
70570;PMS5003;58135;50.948;-1.458;2022-10-16T09:28:48;7;6;
70570;PMS5003;58135;50.948;-1.458;2022-10-16T09:31:15;7;5;
70570;PMS5003;58135;50.948;-1.458;2022-10-16T09:33:39;7;4;
70570;PMS5003;58135;50.948;-1.458;2022-10-16T09:36:04;6;5;
70570;PMS5003;58135;50.948;-1.458;2022-10-16T09:38:30;4;4;
70570;PMS5003;58135;50.948;-1.458;2022-10-16T09:40:55;8;4;
70570;PMS5003;58135;50.948;-1.458;2022-10-16T09:43:22;11;9;
70570;PMS5003;58135;50.948;-1.458;2022-10-16T09:48:12;11;7;
70570;PMS5003;58135;50.948;-1.458;2022-10-16T09:50:37;10;7;
70570;PMS5003;58135;50.948;-1.458;2022-10-16T09:53:04;8;5;
70570;PMS5003;58135;50.948;-1.458;2022-10-16T09:55:28;7;6;
70570;PMS5003;58135;50.948;-1.458;2022-10-16T09:57:54;5;5;
70570;PMS5003;58135;50.948;-1.458;2022-10-16T10:00:19;4;4;
70570;PMS5003;58135;50.948;-1.458;2022-10-16T10:02:44;4;4;
70570;PMS5003;58135;50.948;-1.458;2022-10-16T10:07:35;5;4;
70570;PMS5003;58135;50.948;-1.458;2022-10-16T10:10:01;5;5;
70570;PMS5003;58135;50.948;-1.458;2022-10-16T10:12:26;4;4;
70570;PMS5003;58135;50.948;-1.458;2022-10-16T10:14:51;6;3;
70570;PMS5003;58135;50.948;-1.458;2022-10-16T10:17:18;7;5;
70570;PMS5003;58135;50.948;-1.458;2022-10-16T10:19:46;10;8;
70570;PMS5003;58135;50.948;-1.458;2022-10-16T10:24:33;6;5;
70570;PMS5003;58135;50.948;-1.458;2022-10-16T10:27:00;7;6;
70570;PMS5003;58135;50.948;-1.458;2022-10-16T10:29:28;5;4;
70570;PMS5003;58135;50.948;-1.458;2022-10-16T10:31:52;4;3;
70570;PMS5003;58135;50.948;-1.458;2022-10-16T10:34:32;5;3;
70570;PMS5003;58135;50.948;-1.458;2022-10-16T10:36:41;4;3;
70570;PMS5003;58135;50.948;-1.458;2022-10-16T10:39:07;6;3;
70570;PMS5003;58135;50.948;-1.458;2022-10-16T10:41:44;5;3;
70570;PMS5003;58135;50.948;-1.458;2022-10-16T10:44:01;4;3;
70570;PMS5003;58135;50.948;-1.458;2022-10-16T10:46:25;5;3;
70570;PMS5003;58135;50.948;-1.458;2022-10-16T10:48:54;5;4;
70570;PMS5003;58135;50.948;-1.458;2022-10-16T10:51:15;2;1;
70570;PMS5003;58135;50.948;-1.458;2022-10-16T10:53:41;4;3;
70570;PMS5003;58135;50.948;-1.458;2022-10-16T10:56:07;5;2;
70570;PMS5003;58135;50.948;-1.458;2022-10-16T10:58:35;8;4;
70570;PMS5003;58135;50.948;-1.458;2022-10-16T11:00:57;3;2;
70570;PMS5003;58135;50.948;-1.458;2022-10-16T11:03:27;5;4;
70570;PMS5003;58135;50.948;-1.458;2022-10-16T11:05:47;3;2;
70570;PMS5003;58135;50.948;-1.458;2022-10-16T11:08:14;4;3;
70570;PMS5003;58135;50.948;-1.458;2022-10-16T11:10:42;6;4;
70570;PMS5003;58135;50.948;-1.458;2022-10-16T11:13:06;6;4;
70570;PMS5003;58135;50.948;-1.458;2022-10-16T11:15:29;4;2;
70570;PMS5003;58135;50.948;-1.458;2022-10-16T11:17:55;5;5;
70570;PMS5003;58135;50.948;-1.458;2022-10-16T11:20:20;7;3;
70570;PMS5003;58135;50.948;-1.458;2022-10-16T11:22:46;4;3;
70570;PMS5003;58135;50.948;-1.458;2022-10-16T11:25:12;2;1;
70570;PMS5003;58135;50.948;-1.458;2022-10-16T11:27:37;3;2;
70570;PMS5003;58135;50.948;-1.458;2022-10-16T11:30:02;4;2;
70570;PMS5003;58135;50.948;-1.458;2022-10-16T11:32:28;4;3;
70570;PMS5003;58135;50.948;-1.458;2022-10-16T11:34:53;6;2;
70570;PMS5003;58135;50.948;-1.458;2022-10-16T11:37:18;4;3;
70570;PMS5003;58135;50.948;-1.458;2022-10-16T11:39:43;4;3;
70570;PMS5003;58135;50.948;-1.458;2022-10-16T11:42:09;5;5;
70570;PMS5003;58135;50.948;-1.458;2022-10-16T11:44:42;8;5;
70570;PMS5003;58135;50.948;-1.458;2022-10-16T11:47:02;6;3;
70570;PMS5003;58135;50.948;-1.458;2022-10-16T11:49:25;4;3;
70570;PMS5003;58135;50.948;-1.458;2022-10-16T11:51:57;2;2;
70570;PMS5003;58135;50.948;-1.458;2022-10-16T11:54:18;4;3;
70570;PMS5003;58135;50.948;-1.458;2022-10-16T11:56:42;4;3;
70570;PMS5003;58135;50.948;-1.458;2022-10-16T11:59:08;3;2;
70570;PMS5003;58135;50.948;-1.458;2022-10-16T12:01:33;4;2;
70570;PMS5003;58135;50.948;-1.458;2022-10-16T12:04:01;3;2;
70570;PMS5003;58135;50.948;-1.458;2022-10-16T12:06:27;4;1;
70570;PMS5003;58135;50.948;-1.458;2022-10-16T12:08:49;6;3;
70570;PMS5003;58135;50.948;-1.458;2022-10-16T12:11:22;2;1;
70570;PMS5003;58135;50.948;-1.458;2022-10-16T12:13:41;2;2;
70570;PMS5003;58135;50.948;-1.458;2022-10-16T12:16:07;3;2;
70570;PMS5003;58135;50.948;-1.458;2022-10-16T12:18:31;6;2;
70570;PMS5003;58135;50.948;-1.458;2022-10-16T12:20:57;4;2;
70570;PMS5003;58135;50.948;-1.458;2022-10-16T12:23:22;3;2;
70570;PMS5003;58135;50.948;-1.458;2022-10-16T12:28:18;3;2;
70570;PMS5003;58135;50.948;-1.458;2022-10-16T12:30:40;4;2;
70570;PMS5003;58135;50.948;-1.458;2022-10-16T12:33:05;3;2;
70570;PMS5003;58135;50.948;-1.458;2022-10-16T12:35:30;2;0;
70570;PMS5003;58135;50.948;-1.458;2022-10-16T12:40:25;2;1;
70570;PMS5003;58135;50.948;-1.458;2022-10-16T12:42:46;3;1;
70570;PMS5003;58135;50.948;-1.458;2022-10-16T12:47:38;1;0;
70570;PMS5003;58135;50.948;-1.458;2022-10-16T12:50:03;2;2;
70570;PMS5003;58135;50.948;-1.458;2022-10-16T12:52:28;5;2;
70570;PMS5003;58135;50.948;-1.458;2022-10-16T12:54:56;6;2;
70570;PMS5003;58135;50.948;-1.458;2022-10-16T12:57:24;2;1;
70570;PMS5003;58135;50.948;-1.458;2022-10-16T12:59:46;3;1;
70570;PMS5003;58135;50.948;-1.458;2022-10-16T13:04:43;4;2;
70570;PMS5003;58135;50.948;-1.458;2022-10-16T13:07:03;4;2;
70570;PMS5003;58135;50.948;-1.458;2022-10-16T13:09:30;3;2;
70570;PMS5003;58135;50.948;-1.458;2022-10-16T13:11:57;7;3;
70570;PMS5003;58135;50.948;-1.458;2022-10-16T13:14:22;4;3;
70570;PMS5003;58135;50.948;-1.458;2022-10-16T13:16:46;1;1;
70570;PMS5003;58135;50.948;-1.458;2022-10-16T13:19:12;4;2;
70570;PMS5003;58135;50.948;-1.458;2022-10-16T13:21:36;1;1;
70570;PMS5003;58135;50.948;-1.458;2022-10-16T13:24:00;3;1;
70570;PMS5003;58135;50.948;-1.458;2022-10-16T13:26:28;4;2;
70570;PMS5003;58135;50.948;-1.458;2022-10-16T13:28:50;5;4;
70570;PMS5003;58135;50.948;-1.458;2022-10-16T13:31:17;7;5;
70570;PMS5003;58135;50.948;-1.458;2022-10-16T13:33:41;4;3;
70570;PMS5003;58135;50.948;-1.458;2022-10-16T13:36:06;2;2;
70570;PMS5003;58135;50.948;-1.458;2022-10-16T13:38:32;4;4;
70570;PMS5003;58135;50.948;-1.458;2022-10-16T13:40:57;2;2;
70570;PMS5003;58135;50.948;-1.458;2022-10-16T13:43:24;6;3;
70570;PMS5003;58135;50.948;-1.458;2022-10-16T13:45:54;4;3;
70570;PMS5003;58135;50.948;-1.458;2022-10-16T13:48:13;4;3;
70570;PMS5003;58135;50.948;-1.458;2022-10-16T13:50:39;2;2;
70570;PMS5003;58135;50.948;-1.458;2022-10-16T13:53:05;6;4;
70570;PMS5003;58135;50.948;-1.458;2022-10-16T13:55:30;5;3;
70570;PMS5003;58135;50.948;-1.458;2022-10-16T14:00:22;6;4;
70570;PMS5003;58135;50.948;-1.458;2022-10-16T14:02:49;3;3;
70570;PMS5003;58135;50.948;-1.458;2022-10-16T14:05:12;4;2;
70570;PMS5003;58135;50.948;-1.458;2022-10-16T14:07:37;5;3;
70570;PMS5003;58135;50.948;-1.458;2022-10-16T14:10:03;3;3;
70570;PMS5003;58135;50.948;-1.458;2022-10-16T14:12:27;4;3;
70570;PMS5003;58135;50.948;-1.458;2022-10-16T14:14:53;4;4;
70570;PMS5003;58135;50.948;-1.458;2022-10-16T14:17:20;3;3;
70570;PMS5003;58135;50.948;-1.458;2022-10-16T14:19:45;5;3;
70570;PMS5003;58135;50.948;-1.458;2022-10-16T14:24:35;5;3;
70570;PMS5003;58135;50.948;-1.458;2022-10-16T14:27:00;5;4;
70570;PMS5003;58135;50.948;-1.458;2022-10-16T14:29:32;5;4;
70570;PMS5003;58135;50.948;-1.458;2022-10-16T14:31:55;5;4;
70570;PMS5003;58135;50.948;-1.458;2022-10-16T14:34:23;3;3;
70570;PMS5003;58135;50.948;-1.458;2022-10-16T14:36:43;5;3;
70570;PMS5003;58135;50.948;-1.458;2022-10-16T14:39:14;3;2;
70570;PMS5003;58135;50.948;-1.458;2022-10-16T14:41:40;5;4;
70570;PMS5003;58135;50.948;-1.458;2022-10-16T14:44:00;3;3;
70570;PMS5003;58135;50.948;-1.458;2022-10-16T14:46:28;8;5;
70570;PMS5003;58135;50.948;-1.458;2022-10-16T14:48:50;4;3;
70570;PMS5003;58135;50.948;-1.458;2022-10-16T14:51:15;2;2;
70570;PMS5003;58135;50.948;-1.458;2022-10-16T14:53:40;3;3;
70570;PMS5003;58135;50.948;-1.458;2022-10-16T14:56:06;8;6;
70570;PMS5003;58135;50.948;-1.458;2022-10-16T14:58:30;3;3;
70570;PMS5003;58135;50.948;-1.458;2022-10-16T15:00:56;6;5;
70570;PMS5003;58135;50.948;-1.458;2022-10-16T15:03:21;3;2;
70570;PMS5003;58135;50.948;-1.458;2022-10-16T15:05:47;3;2;
70570;PMS5003;58135;50.948;-1.458;2022-10-16T15:08:12;5;4;
70570;PMS5003;58135;50.948;-1.458;2022-10-16T15:10:39;4;3;
70570;PMS5003;58135;50.948;-1.458;2022-10-16T15:13:03;2;2;
70570;PMS5003;58135;50.948;-1.458;2022-10-16T15:15:35;4;4;
70570;PMS5003;58135;50.948;-1.458;2022-10-16T15:17:54;3;3;
70570;PMS5003;58135;50.948;-1.458;2022-10-16T15:20:19;4;3;
70570;PMS5003;58135;50.948;-1.458;2022-10-16T15:22:45;5;2;
70570;PMS5003;58135;50.948;-1.458;2022-10-16T15:25:11;3;3;
70570;PMS5003;58135;50.948;-1.458;2022-10-16T15:27:36;5;4;
70570;PMS5003;58135;50.948;-1.458;2022-10-16T15:30:02;4;3;
70570;PMS5003;58135;50.948;-1.458;2022-10-16T15:32:27;6;5;
70570;PMS5003;58135;50.948;-1.458;2022-10-16T15:34:52;2;2;
70570;PMS5003;58135;50.948;-1.458;2022-10-16T15:37:18;4;3;
70570;PMS5003;58135;50.948;-1.458;2022-10-16T15:39:43;5;4;
70570;PMS5003;58135;50.948;-1.458;2022-10-16T15:42:09;3;2;
70570;PMS5003;58135;50.948;-1.458;2022-10-16T15:44:35;5;4;
70570;PMS5003;58135;50.948;-1.458;2022-10-16T15:47:00;7;5;
70570;PMS5003;58135;50.948;-1.458;2022-10-16T15:49:26;8;8;
70570;PMS5003;58135;50.948;-1.458;2022-10-16T15:51:51;6;6;
70570;PMS5003;58135;50.948;-1.458;2022-10-16T15:54:18;5;5;
70570;PMS5003;58135;50.948;-1.458;2022-10-16T15:56:42;6;6;
70570;PMS5003;58135;50.948;-1.458;2022-10-16T15:59:08;4;3;
70570;PMS5003;58135;50.948;-1.458;2022-10-16T16:01:34;9;7;
70570;PMS5003;58135;50.948;-1.458;2022-10-16T16:03:59;6;6;
70570;PMS5003;58135;50.948;-1.458;2022-10-16T16:06:24;4;4;
70570;PMS5003;58135;50.948;-1.458;2022-10-16T16:08:50;5;4;
70570;PMS5003;58135;50.948;-1.458;2022-10-16T16:11:16;5;5;
70570;PMS5003;58135;50.948;-1.458;2022-10-16T16:13:41;5;5;
70570;PMS5003;58135;50.948;-1.458;2022-10-16T16:16:07;4;4;
70570;PMS5003;58135;50.948;-1.458;2022-10-16T16:18:32;5;4;
70570;PMS5003;58135;50.948;-1.458;2022-10-16T16:20:57;3;2;
70570;PMS5003;58135;50.948;-1.458;2022-10-16T16:23:23;3;2;
70570;PMS5003;58135;50.948;-1.458;2022-10-16T16:28:20;5;4;
70570;PMS5003;58135;50.948;-1.458;2022-10-16T16:30:39;5;4;
70570;PMS5003;58135;50.948;-1.458;2022-10-16T16:33:05;4;4;
70570;PMS5003;58135;50.948;-1.458;2022-10-16T16:35:30;4;4;
70570;PMS5003;58135;50.948;-1.458;2022-10-16T16:37:56;5;5;
70570;PMS5003;58135;50.948;-1.458;2022-10-16T16:40:21;5;5;
70570;PMS5003;58135;50.948;-1.458;2022-10-16T16:42:47;6;5;
70570;PMS5003;58135;50.948;-1.458;2022-10-16T16:45:12;6;5;
70570;PMS5003;58135;50.948;-1.458;2022-10-16T16:47:38;6;5;
70570;PMS5003;58135;50.948;-1.458;2022-10-16T16:50:03;7;5;